Time;durP1;ratioP1;P1;durP2;ratioP2;P2;SDS_P1;SDS_P2;PMS_P1;PMS_P2;Temp;Humidity;BMP_temperature;BMP_pressure;BME280_temperature;BME280_humidity;BME280_pressure;Samples;Min_cycle;Max_cycle;Signal;HPM_P1;HPM_P2
2023/02/04 00:01:46;;;;;;;6.38;2.10;;;7.70;99.90;;;;;;4907701;29;20054;-79
2023/02/04 00:04:13;;;;;;;4.85;2.30;;;7.70;99.90;;;;;;4904077;29;20047;-78
2023/02/04 00:06:40;;;;;;;2.47;1.85;;;7.70;99.90;;;;;;4902520;29;20491;-80
2023/02/04 00:09:07;;;;;;;2.88;2.00;;;7.80;99.90;;;;;;4912299;29;20068;-78
2023/02/04 00:11:33;;;;;;;3.60;2.00;;;7.80;99.90;;;;;;4911122;29;20427;-79
2023/02/04 00:14:00;;;;;;;4.07;2.35;;;7.80;99.90;;;;;;4901125;29;20495;-79
2023/02/04 00:16:27;;;;;;;3.42;2.10;;;7.80;99.90;;;;;;4911640;29;20048;-79
2023/02/04 00:18:54;;;;;;;5.65;2.05;;;7.80;99.90;;;;;;4906454;29;20063;-80
2023/02/04 00:21:20;;;;;;;5.05;2.00;;;7.80;99.90;;;;;;4887604;29;20475;-79
2023/02/04 00:23:48;;;;;;;3.63;1.73;;;7.80;99.90;;;;;;4909669;29;20060;-80
2023/02/04 00:26:15;;;;;;;3.80;2.38;;;7.80;99.90;;;;;;4912888;29;20082;-79
2023/02/04 00:28:42;;;;;;;4.50;2.13;;;7.90;99.90;;;;;;4900231;29;20558;-79
2023/02/04 00:31:08;;;;;;;4.03;2.47;;;7.90;99.90;;;;;;4911371;29;20504;-80
2023/02/04 00:33:35;;;;;;;4.03;2.38;;;7.90;99.90;;;;;;4911690;29;20116;-80
2023/02/04 00:36:02;;;;;;;2.83;2.35;;;7.80;99.90;;;;;;4909751;29;20066;-79
2023/02/04 00:38:29;;;;;;;6.28;2.55;;;7.80;99.90;;;;;;4907823;29;20048;-79
2023/02/04 00:40:55;;;;;;;3.30;2.47;;;7.80;99.90;;;;;;4910024;29;20414;-81
2023/02/04 00:43:22;;;;;;;2.75;2.30;;;7.80;99.90;;;;;;4912913;29;20071;-79
2023/02/04 00:45:48;;;;;;;2.90;2.40;;;7.80;99.90;;;;;;4909478;29;20135;-79
2023/02/04 00:48:15;;;;;;;5.35;2.25;;;7.80;99.90;;;;;;4906135;29;20045;-79
2023/02/04 00:50:42;;;;;;;5.82;2.45;;;7.80;99.90;;;;;;4911500;29;20081;-79
2023/02/04 00:53:09;;;;;;;5.25;2.95;;;7.80;99.90;;;;;;4916488;29;20070;-79
2023/02/04 00:55:35;;;;;;;5.32;2.13;;;7.80;99.90;;;;;;4898814;29;20422;-78
2023/02/04 00:58:02;;;;;;;3.72;2.55;;;7.80;99.90;;;;;;4918237;29;20590;-79
2023/02/04 01:00:29;;;;;;;5.40;2.42;;;7.80;99.90;;;;;;4911399;29;20056;-79
2023/02/04 01:02:56;;;;;;;5.28;2.60;;;7.80;99.90;;;;;;4909186;29;20129;-81
2023/02/04 01:05:23;;;;;;;3.55;1.88;;;7.80;99.90;;;;;;4902454;29;20045;-78
2023/02/04 01:07:49;;;;;;;5.00;2.53;;;7.70;99.90;;;;;;4915005;29;20056;-79
2023/02/04 01:10:16;;;;;;;2.88;2.38;;;7.70;99.90;;;;;;4912209;29;20050;-77
2023/02/04 01:12:43;;;;;;;3.45;2.40;;;7.70;99.90;;;;;;4907868;29;20052;-77
2023/02/04 01:15:10;;;;;;;3.10;2.42;;;7.70;99.90;;;;;;4902796;29;20127;-78
2023/02/04 01:17:37;;;;;;;3.78;2.50;;;7.70;99.90;;;;;;4908774;29;20071;-78
2023/02/04 01:20:04;;;;;;;4.35;2.53;;;7.80;99.90;;;;;;4911714;29;20052;-78
2023/02/04 01:22:30;;;;;;;4.53;2.97;;;7.70;99.90;;;;;;4912038;29;20049;-77
2023/02/04 01:24:57;;;;;;;3.17;2.40;;;7.80;99.90;;;;;;4912632;29;20103;-78
2023/02/04 01:27:24;;;;;;;2.67;2.05;;;7.80;99.90;;;;;;4909400;29;20604;-78
2023/02/04 01:29:50;;;;;;;5.63;3.35;;;7.80;99.90;;;;;;4906217;29;20084;-79
2023/02/04 01:32:17;;;;;;;5.03;2.78;;;7.80;99.90;;;;;;4889441;29;20057;-79
2023/02/04 01:34:44;;;;;;;5.63;2.70;;;7.80;99.90;;;;;;4913373;29;20147;-79
2023/02/04 01:37:11;;;;;;;3.92;2.20;;;7.80;99.90;;;;;;4912277;29;20047;-78
2023/02/04 01:39:37;;;;;;;5.60;2.40;;;7.80;99.90;;;;;;4910732;29;20048;-78
2023/02/04 01:42:05;;;;;;;3.80;2.80;;;7.80;99.90;;;;;;4916403;29;20135;-78
2023/02/04 01:44:31;;;;;;;4.10;2.28;;;7.80;99.90;;;;;;4907852;29;20171;-78
2023/02/04 01:46:58;;;;;;;4.47;2.28;;;7.80;99.90;;;;;;4908500;29;20404;-78
2023/02/04 01:49:26;;;;;;;3.03;2.30;;;7.80;99.90;;;;;;4910403;29;20470;-78
2023/02/04 01:51:52;;;;;;;4.07;2.53;;;7.80;99.90;;;;;;4910504;29;20060;-78
2023/02/04 01:54:20;;;;;;;4.05;2.30;;;7.80;99.90;;;;;;4909473;29;20151;-78
2023/02/04 01:56:50;;;;;;;3.67;2.40;;;7.80;99.90;;;;;;4904755;29;20048;-78
2023/02/04 01:59:18;;;;;;;4.30;2.70;;;7.80;99.90;;;;;;4905423;29;20048;-77
2023/02/04 02:01:47;;;;;;;7.07;2.35;;;7.80;99.90;;;;;;4914982;29;20044;-78
2023/02/04 02:04:19;;;;;;;4.28;2.10;;;7.80;99.90;;;;;;4908460;29;20413;-78
2023/02/04 02:06:51;;;;;;;5.57;2.47;;;7.80;99.90;;;;;;4912691;29;20052;-79
2023/02/04 02:09:18;;;;;;;3.63;2.42;;;7.70;99.90;;;;;;4909680;29;20044;-78
2023/02/04 02:11:45;;;;;;;2.75;2.30;;;7.70;99.90;;;;;;4905594;29;20048;-78
2023/02/04 02:14:12;;;;;;;3.08;2.25;;;7.70;99.90;;;;;;4906363;29;20063;-78
2023/02/04 02:16:39;;;;;;;3.45;2.50;;;7.70;99.90;;;;;;4888895;29;20048;-78
2023/02/04 02:19:09;;;;;;;3.63;2.38;;;7.70;99.90;;;;;;4912760;29;20430;-78
2023/02/04 02:21:41;;;;;;;;;;;7.70;99.90;;;;;;4906074;29;20080;-78
2023/02/04 02:24:27;;;;;;;3.67;2.35;;;7.70;99.90;;;;;;4898065;29;19930;-78
2023/02/04 02:26:55;;;;;;;5.55;2.35;;;7.70;99.90;;;;;;4911915;29;20135;-78
2023/02/04 02:29:23;;;;;;;3.42;2.63;;;7.70;99.90;;;;;;4911420;29;20060;-78
2023/02/04 02:31:50;;;;;;;4.80;2.45;;;7.70;99.90;;;;;;4910853;29;20152;-77
2023/02/04 02:34:17;;;;;;;4.57;2.45;;;7.70;99.90;;;;;;4910053;29;20054;-79
2023/02/04 02:36:44;;;;;;;4.07;3.33;;;7.70;99.90;;;;;;4908123;29;20048;-78
2023/02/04 02:39:11;;;;;;;4.90;2.60;;;7.70;99.90;;;;;;4907122;29;20517;-78
2023/02/04 02:41:38;;;;;;;7.15;2.65;;;7.70;99.90;;;;;;4902714;29;20053;-78
2023/02/04 02:44:06;;;;;;;2.95;2.10;;;7.70;99.90;;;;;;4905911;29;20083;-78
2023/02/04 02:46:32;;;;;;;2.67;2.22;;;7.70;99.90;;;;;;4894959;29;20422;-78
2023/02/04 02:48:59;;;;;;;3.88;2.05;;;7.60;99.90;;;;;;4891369;29;20083;-78
2023/02/04 02:51:27;;;;;;;4.25;2.47;;;7.60;99.90;;;;;;4914481;29;20139;-78
2023/02/04 02:53:54;;;;;;;5.60;2.65;;;7.70;99.90;;;;;;4909380;29;20076;-78
2023/02/04 02:56:21;;;;;;;4.72;2.38;;;7.70;99.90;;;;;;4907153;29;20083;-78
2023/02/04 02:58:47;;;;;;;2.67;2.47;;;7.70;99.90;;;;;;4907077;29;20063;-78
2023/02/04 03:01:14;;;;;;;4.00;2.47;;;7.60;99.90;;;;;;4908928;29;20067;-78
2023/02/04 03:03:46;;;;;;;2.55;2.25;;;7.70;99.90;;;;;;4907744;29;20104;-78
2023/02/04 03:06:19;;;;;;;4.50;2.80;;;7.60;99.90;;;;;;4906025;29;20134;-77
2023/02/04 03:08:49;;;;;;;3.88;2.45;;;7.60;99.90;;;;;;4901517;29;20048;-78
2023/02/04 03:11:15;;;;;;;2.63;2.28;;;7.70;99.90;;;;;;4894666;29;20045;-78
2023/02/04 03:13:42;;;;;;;3.92;2.10;;;7.70;99.90;;;;;;4910054;29;20489;-78
2023/02/04 03:16:09;;;;;;;3.10;2.47;;;7.70;99.90;;;;;;4912264;29;20052;-78
2023/02/04 03:18:37;;;;;;;4.20;2.63;;;7.70;99.90;;;;;;4912231;29;20073;-78
2023/02/04 03:21:05;;;;;;;4.43;2.40;;;7.70;99.90;;;;;;4908403;29;20555;-78
2023/02/04 03:23:34;;;;;;;3.05;2.45;;;7.70;99.90;;;;;;4906947;29;20044;-77
2023/02/04 03:26:02;;;;;;;3.13;2.58;;;7.70;99.90;;;;;;4905535;29;20143;-78
2023/02/04 03:28:30;;;;;;;2.78;2.00;;;7.70;99.90;;;;;;4893184;29;20066;-77
2023/02/04 03:30:57;;;;;;;5.70;2.70;;;7.70;99.90;;;;;;4909685;29;20091;-78
2023/02/04 03:33:27;;;;;;;2.78;2.47;;;7.70;99.90;;;;;;4904687;29;20049;-78
2023/02/04 03:35:54;;;;;;;3.83;2.55;;;7.80;99.90;;;;;;4891874;29;20112;-78
2023/02/04 03:38:21;;;;;;;3.88;2.38;;;7.80;99.90;;;;;;4908858;29;20530;-78
2023/02/04 03:40:48;;;;;;;3.30;2.60;;;7.70;99.90;;;;;;4907087;29;20495;-78
2023/02/04 03:43:14;;;;;;;3.85;2.40;;;7.70;99.90;;;;;;4908090;29;20514;-78
2023/02/04 03:45:41;;;;;;;2.95;2.40;;;7.80;99.90;;;;;;4893173;29;20048;-79
2023/02/04 03:48:11;;;;;;;3.72;2.40;;;7.80;99.90;;;;;;4908060;29;20565;-77
2023/02/04 03:50:38;;;;;;;3.08;2.22;;;7.80;99.90;;;;;;4902294;29;20041;-78
2023/02/04 03:53:04;;;;;;;2.60;2.40;;;7.80;99.90;;;;;;4903784;29;20076;-78
2023/02/04 03:55:31;;;;;;;2.97;2.20;;;7.80;99.90;;;;;;4911423;29;20499;-77
2023/02/04 03:57:58;;;;;;;2.80;2.33;;;7.80;99.90;;;;;;4892407;29;20464;-78
2023/02/04 04:00:25;;;;;;;4.82;2.40;;;7.80;99.90;;;;;;4898811;29;20044;-77
2023/02/04 04:02:52;;;;;;;4.30;2.17;;;7.80;99.90;;;;;;4910942;29;20057;-78
2023/02/04 04:05:18;;;;;;;2.45;2.15;;;7.70;99.90;;;;;;4906142;29;20040;-78
2023/02/04 04:07:45;;;;;;;2.88;2.25;;;7.80;99.90;;;;;;4887633;29;20059;-77
2023/02/04 04:10:12;;;;;;;3.15;2.35;;;7.70;99.90;;;;;;4905741;29;20051;-77
2023/02/04 04:12:38;;;;;;;3.03;2.58;;;7.80;99.90;;;;;;4909427;29;20481;-78
2023/02/04 04:15:06;;;;;;;4.05;2.40;;;7.80;99.90;;;;;;4907345;29;20084;-79
2023/02/04 04:17:32;;;;;;;3.97;2.45;;;7.80;99.90;;;;;;4897031;29;20076;-78
2023/02/04 04:19:59;;;;;;;2.50;2.30;;;7.80;99.90;;;;;;4883526;29;20529;-79
2023/02/04 04:22:26;;;;;;;4.70;2.28;;;7.80;99.90;;;;;;4910490;29;20418;-78
2023/02/04 04:24:52;;;;;;;2.47;2.17;;;7.80;99.90;;;;;;4909798;29;20054;-78
2023/02/04 04:27:19;;;;;;;2.70;2.50;;;7.80;99.90;;;;;;4910319;29;20142;-80
2023/02/04 04:29:46;;;;;;;3.85;2.10;;;7.80;99.90;;;;;;4909493;29;20074;-79
2023/02/04 04:32:13;;;;;;;2.63;2.20;;;7.80;99.90;;;;;;4905623;29;20052;-78
2023/02/04 04:34:39;;;;;;;3.92;2.65;;;7.80;99.90;;;;;;4901238;29;20044;-78
2023/02/04 04:37:06;;;;;;;4.15;2.70;;;7.80;99.90;;;;;;4904022;29;20147;-79
2023/02/04 04:39:33;;;;;;;3.10;2.45;;;7.90;99.90;;;;;;4910950;29;20052;-78
2023/02/04 04:41:59;;;;;;;3.00;2.38;;;7.90;99.90;;;;;;4906755;29;20048;-78
2023/02/04 04:44:26;;;;;;;2.67;2.10;;;7.90;99.90;;;;;;4904226;29;20460;-79
2023/02/04 04:46:53;;;;;;;5.35;2.85;;;7.90;99.90;;;;;;4911338;29;20048;-79
2023/02/04 04:49:19;;;;;;;2.70;2.35;;;7.90;99.90;;;;;;4899483;29;20040;-78
2023/02/04 04:51:46;;;;;;;3.03;2.70;;;7.90;99.90;;;;;;4906665;29;20126;-78
2023/02/04 04:54:13;;;;;;;4.25;2.67;;;7.90;99.90;;;;;;4891189;29;20135;-78
2023/02/04 04:56:39;;;;;;;4.60;2.63;;;7.90;99.90;;;;;;4908623;29;20048;-78
2023/02/04 04:59:06;;;;;;;2.65;2.45;;;7.90;99.90;;;;;;4906306;29;20051;-79
2023/02/04 05:01:33;;;;;;;3.83;3.25;;;7.90;99.90;;;;;;4900241;29;20258;-78
2023/02/04 05:04:00;;;;;;;2.97;2.67;;;7.90;99.90;;;;;;4886312;29;20091;-78
2023/02/04 05:06:26;;;;;;;3.58;2.58;;;7.90;99.90;;;;;;4911963;29;20048;-78
2023/02/04 05:08:53;;;;;;;3.33;2.70;;;7.90;99.90;;;;;;4912748;29;20048;-79
2023/02/04 05:11:20;;;;;;;11.02;4.03;;;7.90;99.90;;;;;;4891864;29;20048;-78
2023/02/04 05:13:47;;;;;;;4.82;2.90;;;7.90;99.90;;;;;;4902202;29;20078;-78
2023/02/04 05:16:14;;;;;;;3.58;2.67;;;8.00;99.90;;;;;;4888568;29;20079;-78
2023/02/04 05:18:41;;;;;;;3.25;2.67;;;8.00;99.90;;;;;;4903717;29;20079;-79
2023/02/04 05:21:08;;;;;;;2.75;2.35;;;8.00;99.90;;;;;;4904983;29;20059;-77
2023/02/04 05:23:34;;;;;;;4.20;2.70;;;8.00;99.90;;;;;;4908839;29;20049;-78
2023/02/04 05:26:01;;;;;;;2.60;2.30;;;7.90;99.90;;;;;;4904256;29;20059;-78
2023/02/04 05:28:28;;;;;;;3.55;2.80;;;7.90;99.90;;;;;;4900725;29;20052;-78
2023/02/04 05:30:54;;;;;;;4.30;2.72;;;7.90;99.90;;;;;;4901935;29;20132;-78
2023/02/04 05:33:21;;;;;;;4.68;2.67;;;7.90;99.90;;;;;;4908348;29;20060;-78
2023/02/04 05:35:48;;;;;;;3.72;2.90;;;7.90;99.90;;;;;;4889578;29;20056;-78
2023/02/04 05:38:15;;;;;;;2.90;2.60;;;7.90;99.90;;;;;;4908389;29;20052;-78
2023/02/04 05:40:42;;;;;;;3.13;2.58;;;7.90;99.90;;;;;;4907580;29;20080;-78
2023/02/04 05:43:09;;;;;;;3.08;2.40;;;7.90;99.90;;;;;;4903133;29;20112;-78
2023/02/04 05:45:36;;;;;;;3.50;2.50;;;7.90;99.90;;;;;;4901059;29;20055;-78
2023/02/04 05:48:03;;;;;;;4.10;2.80;;;7.80;99.90;;;;;;4890987;29;20044;-78
2023/02/04 05:50:30;;;;;;;3.15;2.40;;;7.80;99.90;;;;;;4907447;29;20051;-78
2023/02/04 05:52:57;;;;;;;2.97;2.42;;;7.80;99.90;;;;;;4905784;29;20060;-78
2023/02/04 05:55:23;;;;;;;3.08;2.40;;;7.80;99.90;;;;;;4907469;29;20153;-78
2023/02/04 05:57:50;;;;;;;3.58;2.65;;;7.80;99.90;;;;;;4908726;29;20143;-76
2023/02/04 06:00:17;;;;;;;5.45;2.97;;;7.80;99.90;;;;;;4908714;29;20135;-78
2023/02/04 06:02:44;;;;;;;2.80;2.30;;;7.70;99.90;;;;;;4907793;29;20095;-78
2023/02/04 06:05:10;;;;;;;3.95;2.67;;;7.70;99.90;;;;;;4910524;29;20438;-77
2023/02/04 06:07:37;;;;;;;3.53;2.83;;;7.80;99.90;;;;;;4909499;29;20049;-78
2023/02/04 06:10:04;;;;;;;3.65;2.50;;;7.80;99.90;;;;;;4905826;29;20056;-77
2023/02/04 06:12:31;;;;;;;3.45;2.70;;;7.80;99.90;;;;;;4902014;29;20499;-79
2023/02/04 06:14:57;;;;;;;3.53;2.80;;;7.80;99.90;;;;;;4910172;29;20067;-79
2023/02/04 06:17:24;;;;;;;3.75;2.70;;;7.80;99.90;;;;;;4915893;29;20044;-78
2023/02/04 06:19:51;;;;;;;3.30;2.70;;;7.80;99.90;;;;;;4917082;29;20452;-78
2023/02/04 06:22:17;;;;;;;3.75;3.10;;;7.80;99.90;;;;;;4902001;29;20391;-79
2023/02/04 06:24:44;;;;;;;3.58;2.53;;;7.80;99.90;;;;;;4912466;29;20153;-78
2023/02/04 06:27:13;;;;;;;3.67;3.00;;;7.80;99.90;;;;;;4906235;29;20483;-78
2023/02/04 06:29:39;;;;;;;3.58;2.97;;;7.80;99.90;;;;;;4905336;29;20100;-78
2023/02/04 06:32:06;;;;;;;2.97;2.65;;;7.80;99.90;;;;;;4909969;29;20063;-78
2023/02/04 06:34:33;;;;;;;4.85;3.03;;;7.80;99.90;;;;;;4908560;29;20672;-78
2023/02/04 06:36:59;;;;;;;4.15;3.22;;;7.80;99.90;;;;;;4905083;29;20053;-79
2023/02/04 06:39:26;;;;;;;4.10;3.25;;;7.80;99.90;;;;;;4902708;29;20076;-78
2023/02/04 06:41:53;;;;;;;4.72;3.65;;;7.80;99.90;;;;;;4892865;29;20084;-79
2023/02/04 06:44:19;;;;;;;3.50;3.10;;;7.80;99.90;;;;;;4911796;29;20040;-78
2023/02/04 06:46:46;;;;;;;3.72;2.45;;;7.80;99.90;;;;;;4911031;29;20086;-79
2023/02/04 06:49:13;;;;;;;3.78;3.20;;;7.70;99.90;;;;;;4914181;29;20048;-78
2023/02/04 06:51:40;;;;;;;5.40;3.00;;;7.80;99.90;;;;;;4908734;29;20045;-78
2023/02/04 06:54:06;;;;;;;4.32;2.67;;;7.80;99.90;;;;;;4906219;29;20092;-78
2023/02/04 06:56:33;;;;;;;3.92;2.92;;;7.80;99.90;;;;;;4904773;29;20092;-79
2023/02/04 06:59:00;;;;;;;4.63;2.88;;;7.80;99.90;;;;;;4909755;29;20430;-78
2023/02/04 07:01:29;;;;;;;3.25;2.75;;;7.80;99.90;;;;;;4911213;29;20104;-78
2023/02/04 07:03:55;;;;;;;6.43;4.35;;;7.80;99.90;;;;;;4911306;29;20052;-78
2023/02/04 07:06:22;;;;;;;6.75;3.83;;;7.90;99.90;;;;;;4916305;29;20054;-79
2023/02/04 07:08:49;;;;;;;5.65;4.15;;;7.80;99.90;;;;;;4906878;29;20478;-78
2023/02/04 07:11:16;;;;;;;8.30;5.30;;;7.80;99.90;;;;;;4909206;29;20072;-78
2023/02/04 07:13:42;;;;;;;6.57;3.80;;;7.80;99.90;;;;;;4892232;29;20123;-78
2023/02/04 07:16:09;;;;;;;3.60;3.30;;;7.80;99.90;;;;;;4912372;29;20142;-78
2023/02/04 07:18:36;;;;;;;7.25;4.18;;;7.90;99.90;;;;;;4908348;29;20052;-78
2023/02/04 07:21:02;;;;;;;5.13;3.83;;;7.90;99.90;;;;;;4904175;29;20052;-78
2023/02/04 07:23:29;;;;;;;4.80;3.80;;;7.90;99.90;;;;;;4900913;29;20100;-77
2023/02/04 07:25:58;;;;;;;6.00;3.80;;;8.00;99.90;;;;;;4912781;29;20052;-78
2023/02/04 07:28:25;;;;;;;5.60;3.47;;;8.00;99.90;;;;;;4911688;29;20465;-78
2023/02/04 07:30:51;;;;;;;5.55;4.55;;;8.00;99.90;;;;;;4912711;29;20051;-78
2023/02/04 07:33:18;;;;;;;4.45;3.88;;;8.00;99.90;;;;;;4891481;29;20051;-79
2023/02/04 07:35:45;;;;;;;4.28;3.65;;;8.00;99.90;;;;;;4897862;29;20056;-78
2023/02/04 07:38:11;;;;;;;5.07;3.80;;;8.00;99.90;;;;;;4905592;29;20058;-77
2023/02/04 07:40:38;;;;;;;4.53;3.60;;;8.10;99.90;;;;;;4905360;29;20053;-79
2023/02/04 07:43:05;;;;;;;3.47;3.05;;;8.10;99.90;;;;;;4912268;29;20048;-77
2023/02/04 07:45:32;;;;;;;4.15;3.35;;;8.10;99.90;;;;;;4908098;29;20052;-78
2023/02/04 07:47:58;;;;;;;4.00;3.25;;;8.10;99.90;;;;;;4886814;29;20053;-79
2023/02/04 07:50:25;;;;;;;4.75;3.75;;;8.10;99.90;;;;;;4907188;29;20052;-79
2023/02/04 07:52:52;;;;;;;6.53;4.15;;;8.10;99.90;;;;;;4907798;29;20057;-79
2023/02/04 07:55:18;;;;;;;5.45;3.60;;;8.10;99.90;;;;;;4911668;29;20108;-78
2023/02/04 07:57:45;;;;;;;5.18;3.67;;;8.10;99.90;;;;;;4911678;29;20059;-77
2023/02/04 08:00:13;;;;;;;4.47;3.20;;;8.10;99.90;;;;;;4911005;29;20130;-78
2023/02/04 08:02:40;;;;;;;4.38;3.50;;;8.20;99.90;;;;;;4904949;29;20046;-78
2023/02/04 08:05:08;;;;;;;4.20;3.33;;;8.20;99.90;;;;;;4902967;29;20053;-78
2023/02/04 08:07:35;;;;;;;4.07;3.45;;;8.20;99.90;;;;;;4905631;29;20052;-77
2023/02/04 08:10:03;;;;;;;6.07;4.10;;;8.30;99.90;;;;;;4912374;29;20055;-78
2023/02/04 08:12:30;;;;;;;6.38;4.35;;;8.30;99.90;;;;;;4910195;29;20054;-79
2023/02/04 08:14:57;;;;;;;8.60;4.90;;;8.30;99.90;;;;;;4915861;29;20059;-80
2023/02/04 08:17:24;;;;;;;6.82;5.32;;;8.30;99.90;;;;;;4912625;29;20070;-79
2023/02/04 08:19:51;;;;;;;6.47;5.47;;;8.30;99.90;;;;;;4906524;29;20068;-79
2023/02/04 08:22:18;;;;;;;6.38;4.53;;;8.30;99.90;;;;;;4890734;29;20055;-79
2023/02/04 08:24:44;;;;;;;5.80;4.50;;;8.40;99.90;;;;;;4908184;29;20140;-79
2023/02/04 08:27:11;;;;;;;5.80;4.53;;;8.40;99.90;;;;;;4911617;29;20053;-80
2023/02/04 08:29:38;;;;;;;5.05;4.10;;;8.40;99.90;;;;;;4907401;29;20052;-78
2023/02/04 08:32:04;;;;;;;8.77;3.85;;;8.40;99.90;;;;;;4903507;29;20100;-79
2023/02/04 08:34:31;;;;;;;9.35;5.70;;;8.40;99.90;;;;;;4905362;29;20055;-77
2023/02/04 08:36:58;;;;;;;11.88;6.78;;;8.40;99.90;;;;;;4911598;29;20055;-79
2023/02/04 08:39:25;;;;;;;6.75;4.70;;;8.50;99.90;;;;;;4911221;29;20578;-80
2023/02/04 08:41:52;;;;;;;4.65;3.45;;;8.50;99.90;;;;;;4912374;29;20052;-80
2023/02/04 08:44:18;;;;;;;5.95;3.65;;;8.50;99.90;;;;;;4912422;29;20044;-79
2023/02/04 08:46:45;;;;;;;7.05;4.22;;;8.50;99.90;;;;;;4905044;29;20092;-79
2023/02/04 08:49:12;;;;;;;6.43;4.20;;;8.50;99.90;;;;;;4905900;29;20115;-79
2023/02/04 08:51:38;;;;;;;4.80;4.07;;;8.50;99.90;;;;;;4908011;29;20084;-80
2023/02/04 08:54:05;;;;;;;5.15;4.15;;;8.50;99.90;;;;;;4915773;29;20052;-79
2023/02/04 08:56:32;;;;;;;6.30;4.68;;;8.50;99.90;;;;;;4890386;29;20048;-77
2023/02/04 08:58:58;;;;;;;7.82;5.57;;;8.50;99.90;;;;;;4886818;29;20426;-78
2023/02/04 09:01:25;;;;;;;9.18;5.30;;;8.50;99.90;;;;;;4910208;29;20522;-78
2023/02/04 09:03:52;;;;;;;9.63;4.95;;;8.60;99.90;;;;;;4909427;29;20044;-78
2023/02/04 09:06:19;;;;;;;6.72;4.53;;;8.60;99.90;;;;;;4908217;29;20072;-79
2023/02/04 09:08:45;;;;;;;9.02;5.80;;;8.60;99.90;;;;;;4911171;29;20050;-78
2023/02/04 09:11:13;;;;;;;6.95;5.75;;;8.70;99.90;;;;;;4910026;29;20046;-83
2023/02/04 09:13:40;;;;;;;5.75;4.43;;;8.60;99.90;;;;;;4903051;29;20188;-80
2023/02/04 09:16:07;;;;;;;6.80;4.90;;;8.70;99.90;;;;;;4911850;29;20120;-80
2023/02/04 09:18:33;;;;;;;4.68;3.78;;;8.70;99.90;;;;;;4911580;29;20107;-84
2023/02/04 09:21:00;;;;;;;7.05;4.10;;;8.70;99.90;;;;;;4911226;29;20056;-84
2023/02/04 09:23:27;;;;;;;5.90;4.38;;;8.70;99.90;;;;;;4911559;29;20131;-79
2023/02/04 09:25:53;;;;;;;7.30;4.43;;;8.70;99.90;;;;;;4904183;29;20056;-77
2023/02/04 09:28:20;;;;;;;8.35;6.22;;;8.80;99.90;;;;;;4902423;29;20045;-79
2023/02/04 09:30:47;;;;;;;6.15;4.50;;;8.80;99.90;;;;;;4903090;29;20171;-78
2023/02/04 09:33:18;;;;;;;4.68;3.15;;;8.80;99.90;;;;;;4904196;29;20127;-78
2023/02/04 09:35:45;;;;;;;4.70;3.70;;;8.80;99.90;;;;;;4911219;29;20060;-79
2023/02/04 09:38:11;;;;;;;4.88;3.67;;;8.80;99.90;;;;;;4913004;29;20063;-79
2023/02/04 09:40:46;;;;;;;6.57;4.25;;;8.80;99.90;;;;;;4909018;29;20137;-78
2023/02/04 09:43:19;;;;;;;9.70;5.60;;;8.80;99.90;;;;;;4909896;29;20048;-78
2023/02/04 09:45:48;;;;;;;11.38;5.68;;;8.90;99.90;;;;;;4891690;29;20056;-77
2023/02/04 09:48:15;;;;;;;10.40;6.65;;;8.90;99.90;;;;;;4911928;29;20051;-77
2023/02/04 09:50:41;;;;;;;8.18;5.80;;;8.90;99.90;;;;;;4895386;29;20060;-78
2023/02/04 09:53:12;;;;;;;9.48;5.70;;;8.90;99.90;;;;;;4911007;29;20076;-77
2023/02/04 09:55:40;;;;;;;;;;;8.90;99.90;;;;;;4910132;29;20055;-79
2023/02/04 09:58:17;;;;;;;6.68;5.45;;;8.90;99.90;;;;;;4905735;29;19973;-78
2023/02/04 10:00:56;;;;;;;9.38;7.13;;;8.90;99.90;;;;;;4912305;29;20150;-78
2023/02/04 10:03:23;;;;;;;6.75;5.40;;;8.90;99.90;;;;;;4912551;29;20491;-79
2023/02/04 10:05:51;;;;;;;8.50;5.35;;;8.90;99.90;;;;;;4911679;29;20048;-77
2023/02/04 10:08:28;;;;;;;6.03;5.43;;;8.90;99.90;;;;;;4916335;29;20048;-79
2023/02/04 10:10:55;;;;;;;8.07;6.82;;;8.90;99.90;;;;;;4910848;29;20074;-78
2023/02/04 10:13:33;;;;;;;9.77;7.88;;;8.90;99.90;;;;;;4905748;29;20503;-78
2023/02/04 10:16:01;;;;;;;6.50;5.80;;;8.90;99.90;;;;;;4911922;29;20080;-78
2023/02/04 10:18:31;;;;;;;9.18;6.03;;;8.90;99.90;;;;;;4912599;29;20052;-78
2023/02/04 10:21:05;;;;;;;;;;;8.90;99.90;;;;;;4907673;29;20132;-77
2023/02/04 10:23:31;;;;;;;7.72;5.95;;;8.90;99.90;;;;;;4908814;29;19923;-78
2023/02/04 10:25:58;;;;;;;9.70;6.68;;;8.90;99.90;;;;;;4901527;29;20076;-78
2023/02/04 10:28:35;;;;;;;7.22;5.80;;;8.90;99.90;;;;;;4905710;29;20054;-78
2023/02/04 10:31:02;;;;;;;8.38;6.30;;;8.90;99.90;;;;;;4913283;29;20052;-78
2023/02/04 10:33:30;;;;;;;9.27;6.10;;;8.90;99.90;;;;;;4913559;29;20044;-78
2023/02/04 10:35:57;;;;;;;9.40;6.60;;;8.90;99.90;;;;;;4901350;29;20048;-78
2023/02/04 10:38:24;;;;;;;8.80;6.90;;;8.90;99.90;;;;;;4912555;29;20405;-77
2023/02/04 10:41:01;;;;;;;9.45;7.28;;;8.90;99.90;;;;;;4910181;29;20048;-79
2023/02/04 10:43:28;;;;;;;7.55;6.25;;;8.80;99.90;;;;;;4891790;29;20064;-79
2023/02/04 10:45:58;;;;;;;10.10;6.53;;;8.80;99.90;;;;;;4910387;29;20123;-78
2023/02/04 10:48:26;;;;;;;7.32;6.47;;;8.80;99.90;;;;;;4915708;29;20059;-78
2023/02/04 10:50:53;;;;;;;9.93;7.75;;;8.80;99.90;;;;;;4913061;29;20045;-80
2023/02/04 10:56:25;;;;;;;8.10;6.70;;;8.80;99.90;;;;;;4909966;29;20087;-77
2023/02/04 10:58:52;;;;;;;10.23;6.97;;;8.80;99.90;;;;;;4914487;29;20425;-80
2023/02/04 11:01:18;;;;;;;9.38;7.38;;;8.90;99.90;;;;;;4913885;29;20428;-78
2023/02/04 11:03:47;;;;;;;7.35;6.60;;;8.90;99.90;;;;;;4915125;29;20057;-78
2023/02/04 11:06:21;;;;;;;10.07;7.05;;;8.90;99.90;;;;;;4911362;29;20055;-80
2023/02/04 11:08:50;;;;;;;8.93;6.93;;;8.90;99.90;;;;;;4905815;29;20563;-78
2023/02/04 11:11:19;;;;;;;10.70;7.65;;;9.00;99.90;;;;;;4912758;29;20055;-78
2023/02/04 11:13:49;;;;;;;12.20;6.88;;;9.00;99.90;;;;;;4914312;29;20053;-78
2023/02/04 11:16:25;;;;;;;7.22;6.07;;;9.10;99.90;;;;;;4911148;29;20054;-78
2023/02/04 11:19:09;;;;;;;7.55;5.90;;;9.00;99.90;;;;;;4897246;29;20048;-78
2023/02/04 11:21:36;;;;;;;9.77;6.90;;;9.00;99.90;;;;;;4910940;29;20136;-79
2023/02/04 11:24:14;;;;;;;8.80;6.50;;;9.10;99.90;;;;;;4904929;29;20127;-78
2023/02/04 11:27:07;;;;;;;9.45;6.05;;;9.10;99.90;;;;;;4913397;29;20123;-78
2023/02/04 11:29:40;;;;;;;8.00;5.63;;;9.20;99.90;;;;;;4912327;29;20048;-80
2023/02/04 11:32:29;;;;;;;8.43;6.40;;;9.20;99.90;;;;;;4913050;29;20109;-78
2023/02/04 11:35:11;;;;;;;7.47;5.72;;;8.90;99.90;;;;;;4891311;29;20084;-78
2023/02/04 11:37:40;;;;;;;9.93;6.40;;;8.80;99.90;;;;;;4905519;29;20051;-77
2023/02/04 11:40:28;;;;;;;7.55;5.97;;;8.70;99.90;;;;;;4897283;29;20048;-77
2023/02/04 11:43:08;;;;;;;8.82;5.80;;;8.70;99.90;;;;;;4907696;29;20059;-78
2023/02/04 11:45:36;;;;;;;6.75;5.68;;;8.70;99.90;;;;;;4909316;29;20044;-78
2023/02/04 11:48:17;;;;;;;7.40;5.78;;;8.70;99.90;;;;;;4904787;29;20471;-77
2023/02/04 11:51:02;;;;;;;7.68;5.80;;;8.60;99.90;;;;;;4903462;29;20427;-78
2023/02/04 11:53:31;;;;;;;5.93;5.07;;;8.60;99.90;;;;;;4911965;29;20079;-78
2023/02/04 11:55:58;;;;;;;6.37;5.63;;;8.70;99.90;;;;;;4905879;29;20052;-78
2023/02/04 11:58:29;;;;;;;8.30;6.45;;;8.80;99.90;;;;;;4907841;29;20080;-77
2023/02/04 12:00:57;;;;;;;12.25;8.55;;;8.80;99.90;;;;;;4907908;29;20141;-77
2023/02/04 12:03:34;;;;;;;8.48;6.45;;;8.90;99.90;;;;;;4904966;29;20059;-77
2023/02/04 12:06:02;;;;;;;8.02;5.38;;;9.00;99.90;;;;;;4905194;29;20080;-75
2023/02/04 12:08:32;;;;;;;5.80;4.88;;;9.10;99.90;;;;;;4889021;29;20127;-77
2023/02/04 12:11:25;;;;;;;8.02;5.30;;;9.10;99.90;;;;;;4907983;29;20135;-78
2023/02/04 12:13:54;;;;;;;6.97;4.43;;;9.10;99.90;;;;;;4906247;29;20052;-79
2023/02/04 12:16:21;;;;;;;4.90;4.13;;;9.00;99.90;;;;;;4886838;29;20049;-77
2023/02/04 12:18:49;;;;;;;5.00;4.50;;;9.00;99.90;;;;;;4901086;29;20055;-77
2023/02/04 12:21:20;;;;;;;5.10;4.10;;;8.90;99.90;;;;;;4910617;29;20234;-77
2023/02/04 12:23:46;;;;;;;8.52;4.68;;;8.90;99.90;;;;;;4907976;29;20053;-78
2023/02/04 12:26:13;;;;;;;8.82;5.28;;;9.10;99.90;;;;;;4909194;29;20071;-79
2023/02/04 12:28:40;;;;;;;6.90;4.47;;;9.10;99.90;;;;;;4908731;29;20048;-76
2023/02/04 12:31:06;;;;;;;5.35;3.47;;;9.20;99.90;;;;;;4896210;29;20048;-77
2023/02/04 12:33:33;;;;;;;5.35;4.15;;;9.30;99.90;;;;;;4902223;29;20052;-78
2023/02/04 12:36:00;;;;;;;4.47;2.97;;;9.40;99.90;;;;;;4900779;29;20135;-77
2023/02/04 12:38:27;;;;;;;3.28;2.53;;;9.40;99.90;;;;;;4909948;29;20053;-78
2023/02/04 12:40:53;;;;;;;3.15;2.25;;;9.30;99.90;;;;;;4903247;29;20426;-78
2023/02/04 12:43:20;;;;;;;5.60;3.05;;;9.40;99.90;;;;;;4904026;29;20506;-78
2023/02/04 12:45:48;;;;;;;2.33;1.73;;;9.50;99.90;;;;;;4908317;29;20570;-77
2023/02/04 12:48:15;;;;;;;2.53;1.50;;;9.50;99.90;;;;;;4890103;29;20048;-77
2023/02/04 12:50:42;;;;;;;2.90;1.80;;;9.50;99.90;;;;;;4908881;29;20095;-78
2023/02/04 12:53:09;;;;;;;2.25;1.90;;;9.50;99.90;;;;;;4908880;29;20135;-79
2023/02/04 12:55:36;;;;;;;4.13;1.95;;;9.50;99.90;;;;;;4900487;29;20087;-79
2023/02/04 12:58:03;;;;;;;5.63;2.00;;;9.60;99.90;;;;;;4912666;29;20048;-79
2023/02/04 13:00:30;;;;;;;4.15;1.95;;;9.50;99.90;;;;;;4894754;29;20111;-76
2023/02/04 13:02:59;;;;;;;4.47;1.80;;;9.50;99.90;;;;;;4902404;29;20139;-78
2023/02/04 13:05:26;;;;;;;4.40;2.13;;;9.60;99.90;;;;;;4903494;29;20068;-77